createdAt,value
2022-08-12T00:00:09.466Z,687.4570
2022-08-12T00:00:20.527Z,686.0420
2022-08-12T00:00:31.569Z,691.7360
2022-08-12T00:00:42.656Z,691.0190
2022-08-12T00:00:53.720Z,685.3370
2022-08-12T00:01:04.774Z,690.3030
2022-08-12T00:01:15.829Z,688.1660
2022-08-12T00:02:02.965Z,681.8340
2022-08-12T00:02:04.133Z,674.9320
2022-08-12T00:02:05.578Z,668.8400
2022-08-12T00:02:17.158Z,669.5110
2022-08-12T00:02:28.354Z,669.5110
2022-08-12T00:02:39.743Z,674.9320
2022-08-12T00:02:51.214Z,677.6760
2022-08-12T00:03:02.352Z,677.6760
2022-08-12T00:03:13.434Z,681.8340
2022-08-12T00:03:29.291Z,675.6160
2022-08-12T00:03:40.484Z,677.6760
2022-08-12T00:03:51.618Z,676.9880
2022-08-12T00:04:02.647Z,679.0560
2022-08-12T00:04:13.711Z,683.2310
2022-08-12T00:04:24.794Z,688.8770
2022-08-12T00:04:35.867Z,687.4570
2022-08-12T00:04:47.070Z,686.7490
2022-08-12T00:04:58.137Z,696.0680
2022-08-12T00:05:09.207Z,690.3030
2022-08-12T00:05:20.274Z,690.3030
2022-08-12T00:05:31.353Z,694.6180
2022-08-12T00:06:04.292Z,691.0190
2022-08-12T00:06:04.832Z,683.2310
2022-08-12T00:06:16.480Z,671.5340
2022-08-12T00:06:27.529Z,678.3650
2022-08-12T00:06:38.597Z,684.6340
2022-08-12T00:06:49.635Z,681.8340
2022-08-12T00:07:00.733Z,684.6340
2022-08-12T00:07:11.797Z,691.7360
2022-08-12T00:07:22.888Z,693.1740
2022-08-12T00:07:33.947Z,690.3030
2022-08-12T00:07:45.018Z,696.0680
2022-08-12T00:07:56.086Z,691.0190
2022-08-12T00:08:07.164Z,692.4540
2022-08-12T00:08:33.009Z,694.6180
2022-08-12T00:08:36.736Z,684.6340
2022-08-12T00:08:48.143Z,686.7490
2022-08-12T00:08:59.255Z,688.8770
2022-08-12T00:09:10.328Z,687.4570
2022-08-12T00:09:26.133Z,690.3030
2022-08-12T00:09:37.516Z,680.4420
2022-08-12T00:09:49.360Z,683.2310
2022-08-12T00:10:00.449Z,693.1740
2022-08-12T00:10:11.518Z,688.8770
2022-08-12T00:10:22.698Z,688.8770
2022-08-12T00:10:33.774Z,693.8950
2022-08-12T00:10:44.857Z,694.6180
2022-08-12T00:10:55.939Z,697.5240
2022-08-12T00:11:09.842Z,698.9870
2022-08-12T00:11:24.134Z,687.4570
2022-08-12T00:11:35.211Z,684.6340
2022-08-12T00:11:46.288Z,693.1740
2022-08-12T00:11:57.368Z,691.7360
2022-08-12T00:12:08.430Z,696.0680
2022-08-12T00:12:19.457Z,696.0680
2022-08-12T00:12:30.587Z,701.9300
2022-08-12T00:12:41.698Z,697.5240
2022-08-12T00:12:52.782Z,697.5240
2022-08-12T00:13:03.859Z,700.4550
2022-08-12T00:13:14.925Z,703.4110
2022-08-12T00:13:26.226Z,701.9300
2022-08-12T00:13:37.272Z,710.9100
2022-08-12T00:13:48.325Z,710.9100
2022-08-12T00:13:59.409Z,705.6440
2022-08-12T00:14:10.476Z,711.6680
2022-08-12T00:14:21.545Z,709.3970
2022-08-12T00:14:32.602Z,707.8910
2022-08-12T00:14:43.664Z,708.6430
2022-08-12T00:14:54.715Z,707.8910
2022-08-12T00:15:05.776Z,713.9540
2022-08-12T00:15:16.843Z,712.4290
2022-08-12T00:15:28.060Z,717.7970
2022-08-12T00:15:39.130Z,713.9540
2022-08-12T00:15:50.193Z,718.5700
2022-08-12T00:16:01.951Z,715.4860
2022-08-12T00:16:13.047Z,711.6680
2022-08-12T00:16:24.121Z,710.9100
2022-08-12T00:16:35.168Z,720.1220
2022-08-12T00:16:46.233Z,711.6680
2022-08-12T00:16:57.425Z,713.1910
2022-08-12T00:17:08.513Z,715.4860
2022-08-12T00:17:19.577Z,718.5700
2022-08-12T00:17:30.853Z,717.7970
2022-08-12T00:17:41.926Z,713.9540
2022-08-12T00:17:52.998Z,723.2460
2022-08-12T00:18:04.044Z,721.6810
2022-08-12T00:18:15.124Z,721.6810
2022-08-12T00:18:26.192Z,717.0250
2022-08-12T00:18:37.272Z,718.5700
2022-08-12T00:18:48.351Z,718.5700
2022-08-12T00:18:59.831Z,718.5700
2022-08-12T00:19:10.921Z,719.3450
2022-08-12T00:19:21.989Z,720.1220
2022-08-12T00:19:33.810Z,719.3450
2022-08-12T00:19:44.846Z,720.1220
2022-08-12T00:19:55.898Z,720.9010
2022-08-12T00:20:06.983Z,724.0320
2022-08-12T00:20:18.084Z,720.1220
2022-08-12T00:20:29.836Z,721.6810
2022-08-12T00:20:41.163Z,720.9010
2022-08-12T00:20:52.254Z,719.3450
2022-08-12T00:21:03.429Z,724.8190
2022-08-12T00:21:14.999Z,718.5700
2022-08-12T00:21:26.691Z,722.4630
2022-08-12T00:21:38.373Z,718.5700
2022-08-12T00:21:49.560Z,724.0320
2022-08-12T00:22:00.640Z,723.2460
2022-08-12T00:22:11.706Z,721.6810
2022-08-12T00:22:22.779Z,724.8190
2022-08-12T00:22:34.024Z,721.6810
2022-08-12T00:22:45.052Z,726.3980
2022-08-12T00:22:59.814Z,727.9840
2022-08-12T00:23:11.298Z,715.4860
2022-08-12T00:23:22.499Z,721.6810
2022-08-12T00:23:33.732Z,725.6070
2022-08-12T00:23:44.813Z,728.7790
2022-08-12T00:23:55.883Z,730.3760
2022-08-12T00:24:08.271Z,717.7970
2022-08-12T00:24:20.389Z,720.9010
2022-08-12T00:24:31.486Z,721.6810
2022-08-12T00:24:42.554Z,723.2460
2022-08-12T00:24:53.632Z,723.2460
2022-08-12T00:25:04.839Z,727.9840
2022-08-12T00:25:15.910Z,731.1770
2022-08-12T00:26:02.777Z,726.3980
2022-08-12T00:26:05.872Z,714.7190
2022-08-12T00:26:20.731Z,705.6440
2022-08-12T00:26:22.542Z,696.0680
2022-08-12T00:26:34.859Z,691.7360
2022-08-12T00:26:45.926Z,698.2550
2022-08-12T00:26:56.991Z,700.4550
2022-08-12T00:27:08.048Z,704.8980
2022-08-12T00:27:19.172Z,707.8910
2022-08-12T00:27:44.243Z,710.1520
2022-08-12T00:27:47.229Z,702.6690
2022-08-12T00:27:58.290Z,704.8980
2022-08-12T00:28:09.389Z,705.6440
2022-08-12T00:28:20.452Z,711.6680
2022-08-12T00:28:31.519Z,710.9100
2022-08-12T00:28:42.566Z,716.2550
2022-08-12T00:28:53.761Z,715.4860
2022-08-12T00:29:05.268Z,715.4860
2022-08-12T00:29:16.340Z,717.0250
2022-08-12T00:29:27.623Z,719.3450
2022-08-12T00:29:38.691Z,723.2460
2022-08-12T00:29:49.747Z,721.6810
2022-08-12T00:30:00.833Z,725.6070
2022-08-12T00:30:11.907Z,721.6810
2022-08-12T00:30:22.975Z,723.2460
2022-08-12T00:30:34.035Z,724.8190
2022-08-12T00:30:45.117Z,727.9840
2022-08-12T00:30:56.185Z,721.6810
2022-08-12T00:31:07.256Z,724.0320
2022-08-12T00:31:18.335Z,726.3980
2022-08-12T00:31:29.703Z,731.9790
2022-08-12T00:31:40.746Z,728.7790
2022-08-12T00:31:51.829Z,733.5900
2022-08-12T00:32:02.898Z,729.5770
2022-08-12T00:32:35.325Z,731.9790
2022-08-12T00:32:35.496Z,718.5700
2022-08-12T00:32:51.777Z,707.8910
2022-08-12T00:33:04.586Z,704.8980
2022-08-12T00:33:15.781Z,708.6430
2022-08-12T00:33:26.965Z,710.9100
2022-08-12T00:33:52.564Z,705.6440
2022-08-12T00:34:00.812Z,698.2550
2022-08-12T00:34:12.814Z,704.1530
2022-08-12T00:34:23.887Z,704.1530
2022-08-12T00:34:35.018Z,710.9100
2022-08-12T00:34:46.091Z,707.8910
2022-08-12T00:34:59.599Z,708.6430
2022-08-12T00:35:12.077Z,709.3970
2022-08-12T00:35:26.030Z,713.9540
2022-08-12T00:35:40.476Z,704.1530
2022-08-12T00:35:51.728Z,705.6440
2022-08-12T00:36:02.815Z,709.3970
2022-08-12T00:36:32.246Z,710.1520
2022-08-12T00:36:35.143Z,703.4110
2022-08-12T00:36:48.869Z,697.5240
2022-08-12T00:37:13.009Z,694.6180
2022-08-12T00:37:18.466Z,688.1660
2022-08-12T00:37:29.500Z,699.7200
2022-08-12T00:37:40.603Z,696.0680
2022-08-12T00:37:51.633Z,704.8980
2022-08-12T00:38:02.689Z,704.8980
2022-08-12T00:38:13.770Z,707.1400
2022-08-12T00:38:24.832Z,710.9100
2022-08-12T00:38:36.019Z,715.4860
2022-08-12T00:38:47.069Z,718.5700
2022-08-12T00:38:58.133Z,713.1910
2022-08-12T00:39:09.199Z,722.4630
2022-08-12T00:39:20.305Z,720.1220
2022-08-12T00:39:31.431Z,724.0320
2022-08-12T00:39:42.676Z,724.8190
2022-08-12T00:39:53.768Z,726.3980
2022-08-12T00:40:11.377Z,723.2460
2022-08-12T00:40:21.800Z,708.6430
2022-08-12T00:40:32.880Z,717.0250
2022-08-12T00:40:43.940Z,720.1220
2022-08-12T00:40:54.996Z,720.1220
2022-08-12T00:41:06.170Z,721.6810
2022-08-12T00:41:17.225Z,724.8190
2022-08-12T00:41:28.288Z,725.6070
2022-08-12T00:41:39.356Z,726.3980
2022-08-12T00:41:50.413Z,729.5770
2022-08-12T00:42:01.485Z,731.1770
2022-08-12T00:42:12.576Z,731.1770
2022-08-12T00:42:23.635Z,728.7790
2022-08-12T00:42:34.737Z,729.5770
2022-08-12T00:42:45.832Z,731.1770
2022-08-12T00:42:56.893Z,733.5900
2022-08-12T00:43:07.954Z,731.1770
2022-08-12T00:43:19.008Z,739.2830
2022-08-12T00:43:30.079Z,734.3980
2022-08-12T00:43:41.132Z,739.2830
2022-08-12T00:43:56.132Z,739.2830
2022-08-12T00:44:07.371Z,731.9790
2022-08-12T00:44:18.434Z,731.1770
2022-08-12T00:44:33.437Z,729.5770
2022-08-12T00:44:45.317Z,726.3980
2022-08-12T00:44:59.498Z,721.6810
2022-08-12T00:45:10.584Z,734.3980
2022-08-12T00:45:21.643Z,731.1770
2022-08-12T00:45:32.712Z,739.2830
2022-08-12T00:45:43.789Z,731.9790
2022-08-12T00:45:54.859Z,740.9260
2022-08-12T00:46:05.918Z,742.5760
2022-08-12T00:46:16.986Z,736.8320
2022-08-12T00:46:28.185Z,736.0190
2022-08-12T00:46:39.260Z,736.8320
2022-08-12T00:46:50.322Z,740.9260
2022-08-12T00:47:01.542Z,742.5760
2022-08-12T00:47:24.592Z,739.2830
2022-08-12T00:47:29.594Z,736.0190
2022-08-12T00:47:40.644Z,730.3760
2022-08-12T00:47:51.699Z,737.6470
2022-08-12T00:48:02.770Z,737.6470
2022-08-12T00:48:13.843Z,740.9260
2022-08-12T00:48:24.920Z,740.9260
2022-08-12T00:48:35.994Z,741.7500
2022-08-12T00:48:47.047Z,740.9260
2022-08-12T00:48:58.114Z,740.1030
2022-08-12T00:49:09.177Z,739.2830
2022-08-12T00:49:20.255Z,743.4040
2022-08-12T00:49:31.499Z,746.6440
2022-08-12T00:49:42.570Z,747.4800
2022-08-12T00:49:59.587Z,731.1770
2022-08-12T00:50:10.660Z,734.3980
2022-08-12T00:50:21.716Z,736.0190
2022-08-12T00:50:32.913Z,741.7500
2022-08-12T00:50:43.984Z,736.0190
2022-08-12T00:50:55.033Z,742.5760
2022-08-12T00:51:06.388Z,745.8980
2022-08-12T00:51:17.693Z,744.2330
2022-08-12T00:51:28.759Z,747.4800
2022-08-12T00:51:39.823Z,751.2660
2022-08-12T00:51:50.943Z,750.0000
2022-08-12T00:52:04.303Z,742.5760
2022-08-12T00:52:15.378Z,745.0650
2022-08-12T00:52:26.447Z,744.2330
2022-08-12T00:52:37.505Z,745.8980
2022-08-12T00:52:48.599Z,752.9610
2022-08-12T00:52:59.648Z,748.3180
2022-08-12T00:53:10.710Z,750.4220
2022-08-12T00:53:21.751Z,756.8030
2022-08-12T00:53:32.840Z,749.1580
2022-08-12T00:53:43.888Z,754.6640
2022-08-12T00:53:54.974Z,757.2320
2022-08-12T00:54:06.189Z,752.5370
2022-08-12T00:54:17.271Z,752.1130
2022-08-12T00:54:30.609Z,745.8980
2022-08-12T00:54:43.431Z,747.0620
2022-08-12T00:54:54.518Z,752.9610
2022-08-12T00:55:05.702Z,748.3180
2022-08-12T00:55:16.768Z,750.0000
2022-08-12T00:55:27.842Z,750.4220
2022-08-12T00:55:38.914Z,752.5370
2022-08-12T00:55:49.983Z,750.4220
2022-08-12T00:56:01.050Z,753.8110
2022-08-12T00:56:12.099Z,754.2370
2022-08-12T00:56:23.182Z,755.9460
2022-08-12T00:56:34.258Z,755.9460
2022-08-12T00:56:45.330Z,755.5180
2022-08-12T00:56:56.408Z,753.8110
2022-08-12T00:57:07.616Z,757.2320
2022-08-12T00:57:18.677Z,757.2320
2022-08-12T00:57:29.728Z,756.3740
2022-08-12T00:57:40.799Z,755.0900
2022-08-12T00:57:51.906Z,758.9540
2022-08-12T00:58:02.956Z,756.3740
2022-08-12T00:58:14.019Z,757.6620
2022-08-12T00:58:25.079Z,757.6620
2022-08-12T00:58:36.164Z,759.8180
2022-08-12T00:58:47.240Z,756.8030
2022-08-12T00:58:58.637Z,758.9540
2022-08-12T00:59:09.725Z,761.1170
2022-08-12T00:59:20.792Z,762.4210
2022-08-12T00:59:31.854Z,759.3860
2022-08-12T00:59:42.952Z,762.4210
2022-08-12T00:59:54.051Z,761.1170
2022-08-12T01:00:05.128Z,761.5520
2022-08-12T01:00:16.222Z,761.1170
2022-08-12T01:00:27.460Z,766.3610
2022-08-12T01:00:38.525Z,768.1240
2022-08-12T01:00:49.581Z,764.6050
2022-08-12T01:01:00.722Z,766.3610
2022-08-12T01:01:11.913Z,764.6050
2022-08-12T01:01:23.026Z,764.6050
2022-08-12T01:02:02.369Z,762.8570
2022-08-12T01:02:10.386Z,752.5370
2022-08-12T01:02:12.202Z,738.4640
2022-08-12T01:02:23.680Z,735.2070
2022-08-12T01:02:34.812Z,741.7500
2022-08-12T01:02:45.853Z,739.2830
2022-08-12T01:02:56.935Z,746.6440
2022-08-12T01:03:08.000Z,747.4800
2022-08-12T01:03:19.042Z,753.3860
2022-08-12T01:03:30.112Z,751.6890
2022-08-12T01:03:41.185Z,759.8180
2022-08-12T01:03:52.253Z,753.3860
2022-08-12T01:04:05.692Z,752.1130
2022-08-12T01:04:16.755Z,752.1130
2022-08-12T01:04:27.815Z,754.6640
2022-08-12T01:04:39.934Z,755.0900
2022-08-12T01:04:50.999Z,756.8030
2022-08-12T01:05:02.156Z,755.5180
2022-08-12T01:05:13.245Z,759.3860
2022-08-12T01:05:24.361Z,759.8180
2022-08-12T01:05:35.426Z,759.8180
2022-08-12T01:05:46.509Z,756.3740
2022-08-12T01:05:57.560Z,758.5230
2022-08-12T01:06:08.637Z,759.3860
2022-08-12T01:06:19.709Z,758.9540
2022-08-12T01:06:30.780Z,764.6050
2022-08-12T01:06:41.852Z,766.8010
2022-08-12T01:06:53.593Z,764.6050
2022-08-12T01:07:05.254Z,761.9860
2022-08-12T01:07:16.319Z,760.6840
2022-08-12T01:07:27.397Z,763.7300
2022-08-12T01:07:38.448Z,769.8960
2022-08-12T01:07:49.519Z,763.7300
2022-08-12T01:08:00.585Z,769.8960
2022-08-12T01:08:11.642Z,764.6050
2022-08-12T01:08:22.713Z,766.3610
2022-08-12T01:08:33.788Z,765.4820
2022-08-12T01:08:44.863Z,763.7300
2022-08-12T01:08:55.939Z,767.2410
2022-08-12T01:09:07.169Z,768.5660
2022-08-12T01:09:18.212Z,765.0430
2022-08-12T01:09:29.295Z,769.4520
2022-08-12T01:09:40.341Z,771.2300
2022-08-12T01:09:51.406Z,765.0430
2022-08-12T01:10:02.486Z,773.9130
2022-08-12T01:10:13.561Z,769.8960
2022-08-12T01:10:27.532Z,768.5660
2022-08-12T01:10:41.615Z,764.6050
2022-08-12T01:10:52.686Z,756.3740
2022-08-12T01:11:03.752Z,767.2410
2022-08-12T01:11:14.812Z,765.0430
2022-08-12T01:11:25.895Z,762.8570
2022-08-12T01:11:36.972Z,767.6830
2022-08-12T01:11:48.072Z,764.6050
2022-08-12T01:11:59.140Z,769.8960
2022-08-12T01:12:10.187Z,766.3610
2022-08-12T01:12:21.258Z,765.9210
2022-08-12T01:12:32.325Z,766.3610
2022-08-12T01:12:43.386Z,763.2930
2022-08-12T01:12:54.446Z,765.9210
2022-08-12T01:13:19.281Z,752.5370
2022-08-12T01:13:28.376Z,739.2830
2022-08-12T01:13:39.438Z,750.8440
2022-08-12T01:13:50.508Z,750.0000
2022-08-12T01:14:01.572Z,755.0900
2022-08-12T01:14:12.611Z,756.8030
2022-08-12T01:14:23.679Z,753.8110
2022-08-12T01:14:34.763Z,759.3860
2022-08-12T01:14:45.829Z,757.2320
2022-08-12T01:14:56.892Z,759.8180
2022-08-12T01:15:07.977Z,760.2510
2022-08-12T01:15:19.046Z,759.3860
2022-08-12T01:15:30.421Z,766.3610
2022-08-12T01:15:41.498Z,764.6050
2022-08-12T01:15:52.566Z,763.2930
2022-08-12T01:16:03.620Z,763.7300
2022-08-12T01:16:14.686Z,761.5520
2022-08-12T01:16:25.768Z,765.4820
2022-08-12T01:16:36.831Z,762.8570
2022-08-12T01:16:47.906Z,765.4820
2022-08-12T01:17:00.268Z,765.4820
2022-08-12T01:17:11.340Z,764.6050
2022-08-12T01:17:22.404Z,764.6050
2022-08-12T01:17:33.460Z,767.2410
2022-08-12T01:17:44.531Z,763.2930
2022-08-12T01:17:55.595Z,766.3610
2022-08-12T01:18:06.667Z,771.6760
2022-08-12T01:18:17.860Z,767.6830
2022-08-12T01:18:28.927Z,768.1240
2022-08-12T01:18:40.005Z,768.1240
2022-08-12T01:18:51.083Z,758.5230
2022-08-12T01:19:02.257Z,766.3610
2022-08-12T01:19:13.334Z,767.2410
2022-08-12T01:19:26.368Z,764.6050
2022-08-12T01:19:37.470Z,765.9210
2022-08-12T01:19:48.742Z,762.8570
2022-08-12T01:19:59.805Z,768.1240
2022-08-12T01:20:10.849Z,767.6830
2022-08-12T01:20:21.928Z,765.4820
2022-08-12T01:20:33.178Z,770.7850
2022-08-12T01:20:45.084Z,772.1230
2022-08-12T01:20:56.164Z,763.7300
2022-08-12T01:21:07.229Z,760.2510
2022-08-12T01:21:18.423Z,768.5660
2022-08-12T01:21:29.489Z,768.1240
2022-08-12T01:21:40.559Z,767.2410
2022-08-12T01:21:51.625Z,765.0430
2022-08-12T01:22:02.698Z,769.0090
2022-08-12T01:22:13.745Z,767.2410
2022-08-12T01:22:24.809Z,766.8010
2022-08-12T01:22:35.970Z,768.5660
2022-08-12T01:22:47.040Z,766.3610
2022-08-12T01:22:58.103Z,773.0170
2022-08-12T01:23:09.170Z,768.1240
2022-08-12T01:23:20.245Z,769.8960
2022-08-12T01:23:31.279Z,767.2410
2022-08-12T01:23:42.360Z,770.3400
2022-08-12T01:23:53.438Z,770.3400
2022-08-12T01:24:29.549Z,757.6620
2022-08-12T01:24:30.117Z,765.4820
2022-08-12T01:24:38.443Z,743.4040
2022-08-12T01:24:50.623Z,749.5790
2022-08-12T01:25:01.684Z,754.2370
2022-08-12T01:25:12.788Z,749.5790
2022-08-12T01:25:23.856Z,751.6890
2022-08-12T01:25:37.380Z,755.5180
2022-08-12T01:25:56.197Z,746.6440
2022-08-12T01:26:07.828Z,733.5900
2022-08-12T01:26:18.899Z,742.5760
2022-08-12T01:26:29.962Z,737.6470
2022-08-12T01:26:41.019Z,751.6890
2022-08-12T01:26:52.088Z,747.4800
2022-08-12T01:27:03.152Z,753.3860
2022-08-12T01:27:18.462Z,742.5760
2022-08-12T01:27:29.542Z,747.4800
2022-08-12T01:27:40.589Z,748.3180
2022-08-12T01:27:51.649Z,752.9610
2022-08-12T01:28:02.719Z,757.2320
2022-08-12T01:28:13.794Z,755.0900
2022-08-12T01:28:24.890Z,754.6640
2022-08-12T01:28:35.964Z,752.9610
2022-08-12T01:28:47.039Z,758.5230
2022-08-12T01:29:01.176Z,740.9260
2022-08-12T01:29:12.241Z,752.5370
2022-08-12T01:29:23.314Z,753.3860
2022-08-12T01:29:35.419Z,756.8030
2022-08-12T01:29:46.482Z,755.9460
2022-08-12T01:29:57.569Z,749.5790
2022-08-12T01:30:08.638Z,755.9460
2022-08-12T01:30:19.720Z,756.8030
2022-08-12T01:30:30.793Z,761.1170
2022-08-12T01:30:41.900Z,760.2510
2022-08-12T01:30:52.969Z,759.3860
2022-08-12T01:31:04.034Z,756.8030
2022-08-12T01:31:16.494Z,759.8180
2022-08-12T01:31:27.738Z,757.2320
2022-08-12T01:31:38.809Z,759.3860
2022-08-12T01:31:49.863Z,757.6620
2022-08-12T01:32:00.932Z,762.8570
2022-08-12T01:32:12.007Z,754.2370
2022-08-12T01:32:23.063Z,758.9540
2022-08-12T01:32:34.115Z,762.4210
2022-08-12T01:32:45.167Z,765.4820
2022-08-12T01:32:56.243Z,763.2930
2022-08-12T01:33:07.988Z,762.8570
2022-08-12T01:33:19.041Z,769.0090
2022-08-12T01:33:30.128Z,764.1670
2022-08-12T01:33:41.216Z,764.6050
2022-08-12T01:33:52.288Z,766.8010
2022-08-12T01:34:03.388Z,767.2410
2022-08-12T01:34:35.527Z,753.3860
2022-08-12T01:34:36.679Z,765.9210
2022-08-12T01:34:48.549Z,738.4640
2022-08-12T01:34:59.619Z,746.2270
2022-08-12T01:35:10.692Z,746.2270
2022-08-12T01:35:21.903Z,750.4220
2022-08-12T01:35:32.981Z,754.6640
2022-08-12T01:35:44.071Z,759.8180
2022-08-12T01:36:08.355Z,745.0650
2022-08-12T01:36:18.012Z,736.0190
2022-08-12T01:36:29.089Z,736.8320
2022-08-12T01:36:40.150Z,740.9260
2022-08-12T01:36:51.355Z,746.6440
2022-08-12T01:37:02.404Z,750.4220
2022-08-12T01:37:13.477Z,754.2370
2022-08-12T01:37:24.533Z,751.6890
2022-08-12T01:37:35.858Z,760.2510
2022-08-12T01:37:46.933Z,753.3860
2022-08-12T01:37:58.010Z,750.8440
2022-08-12T01:38:09.088Z,761.5520
2022-08-12T01:38:20.153Z,762.8570
2022-08-12T01:38:37.113Z,740.1030
2022-08-12T01:38:48.202Z,747.4800
2022-08-12T01:38:59.273Z,752.5370
2022-08-12T01:39:10.392Z,751.2660
2022-08-12T01:39:21.472Z,756.3740
2022-08-12T01:39:32.578Z,754.2370
2022-08-12T01:40:32.029Z,745.8980
2022-08-12T01:40:33.193Z,737.6470
2022-08-12T01:40:35.324Z,756.3740
2022-08-12T01:40:38.154Z,731.1770
2022-08-12T01:40:50.475Z,721.6810
2022-08-12T01:41:01.633Z,727.9840
2022-08-12T01:41:12.736Z,734.3980
2022-08-12T01:41:23.897Z,737.6470
2022-08-12T01:41:34.958Z,744.2330
2022-08-12T01:41:51.500Z,744.2330
2022-08-12T01:42:02.958Z,729.5770
2022-08-12T01:42:13.999Z,732.7840
2022-08-12T01:42:25.050Z,747.5710
2022-08-12T01:42:36.159Z,737.6470
2022-08-12T01:42:47.242Z,747.4800
2022-08-12T01:42:58.317Z,747.4800
2022-08-12T01:43:09.381Z,745.8980
2022-08-12T01:43:20.456Z,750.0000
2022-08-12T01:43:31.530Z,751.6890
2022-08-12T01:43:42.592Z,749.5790
2022-08-12T01:43:53.679Z,754.6640
2022-08-12T01:44:04.746Z,755.0900
2022-08-12T01:44:15.946Z,755.9460
2022-08-12T01:44:31.782Z,746.2270
2022-08-12T01:44:42.859Z,750.0000
2022-08-12T01:44:53.926Z,751.6890
2022-08-12T01:45:04.994Z,752.9610
2022-08-12T01:45:16.069Z,755.0900
2022-08-12T01:45:27.126Z,756.8030
2022-08-12T01:45:43.345Z,758.9540
2022-08-12T01:45:57.635Z,747.8990
2022-08-12T01:46:08.802Z,740.1030
2022-08-12T01:46:19.863Z,745.0650
2022-08-12T01:46:30.931Z,749.1580
2022-08-12T01:46:41.998Z,758.0920
2022-08-12T01:46:53.046Z,757.2320
2022-08-12T01:47:04.105Z,756.8030
2022-08-12T01:47:15.176Z,758.0920
2022-08-12T01:47:26.256Z,764.1670
2022-08-12T01:47:37.293Z,760.6840
2022-08-12T01:47:48.368Z,758.5230
2022-08-12T01:47:59.428Z,760.2510
2022-08-12T01:48:10.501Z,770.7850
2022-08-12T01:48:21.566Z,762.8570
2022-08-12T01:48:32.636Z,765.4820
2022-08-12T01:48:43.706Z,763.2930
2022-08-12T01:48:54.771Z,768.5660
2022-08-12T01:49:05.836Z,769.0090
2022-08-12T01:49:16.918Z,768.5660
2022-08-12T01:49:33.890Z,758.0920
2022-08-12T01:49:44.966Z,758.5230
2022-08-12T01:49:56.036Z,762.8570
2022-08-12T01:50:07.195Z,768.1240
2022-08-12T01:50:18.288Z,771.2300
2022-08-12T01:50:29.337Z,765.9210
2022-08-12T01:50:43.204Z,767.2410
2022-08-12T01:50:54.609Z,757.6620
2022-08-12T01:51:11.613Z,748.7380
2022-08-12T01:52:15.045Z,745.0650
2022-08-12T01:52:21.381Z,737.6470
2022-08-12T01:52:21.656Z,726.3980
2022-08-12T01:52:22.309Z,720.9010
2022-08-12T01:52:33.718Z,724.0320
2022-08-12T01:52:44.794Z,731.9790
2022-08-12T01:52:55.884Z,739.2830
2022-08-12T01:53:06.957Z,750.4220
2022-08-12T01:53:18.024Z,748.3180
2022-08-12T01:53:29.114Z,748.3180
2022-08-12T01:53:50.320Z,740.9260
2022-08-12T01:54:03.040Z,736.0190
2022-08-12T01:54:14.131Z,736.0190
2022-08-12T01:54:25.491Z,742.5760
2022-08-12T01:54:36.545Z,743.4040
2022-08-12T01:54:47.606Z,740.9260
2022-08-12T01:54:58.669Z,749.1580
2022-08-12T01:55:09.749Z,751.6890
2022-08-12T01:55:20.807Z,751.6890
2022-08-12T01:55:31.867Z,753.8110
2022-08-12T01:55:42.936Z,755.0900
2022-08-12T01:55:53.984Z,758.5230
2022-08-12T01:56:05.054Z,754.6640
2022-08-12T01:56:16.168Z,760.2510
2022-08-12T01:56:27.376Z,762.8570
2022-08-12T01:56:38.432Z,767.2410
2022-08-12T01:56:49.496Z,755.5180
2022-08-12T01:57:00.580Z,764.1670
2022-08-12T01:57:11.655Z,768.1240
2022-08-12T01:57:57.681Z,766.8010
2022-08-12T01:57:57.741Z,750.0000
2022-08-12T01:57:59.617Z,749.1580
2022-08-12T01:58:11.517Z,734.3980
2022-08-12T01:58:22.563Z,748.7380
2022-08-12T01:58:33.630Z,750.0000
2022-08-12T01:58:44.686Z,755.0900
2022-08-12T01:58:55.766Z,758.5230
2022-08-12T01:59:06.846Z,758.0920
2022-08-12T01:59:23.826Z,750.8440
2022-08-12T01:59:34.902Z,746.2270
2022-08-12T01:59:45.965Z,757.6620
2022-08-12T01:59:57.046Z,756.3740
2022-08-12T02:00:08.108Z,755.9460
2022-08-12T02:00:19.184Z,756.3740
2022-08-12T02:00:36.017Z,760.2510
2022-08-12T02:00:55.495Z,753.3860
2022-08-12T02:01:04.262Z,745.8980
2022-08-12T02:01:15.422Z,747.4800
2022-08-12T02:01:26.518Z,754.2370
2022-08-12T02:01:37.704Z,757.2320
2022-08-12T02:01:48.916Z,758.0920
2022-08-12T02:01:59.973Z,759.8180
2022-08-12T02:02:11.049Z,762.8570
2022-08-12T02:02:22.123Z,764.1670
2022-08-12T02:02:33.201Z,768.1240
2022-08-12T02:02:44.249Z,767.6830
2022-08-12T02:02:55.313Z,763.2930
2022-08-12T02:03:06.389Z,770.7850
2022-08-12T02:03:17.442Z,768.5660
2022-08-12T02:03:28.486Z,773.4650
2022-08-12T02:03:39.564Z,770.7850
2022-08-12T02:03:50.632Z,774.3620
2022-08-12T02:04:01.692Z,772.5690
2022-08-12T02:04:12.762Z,776.6140
2022-08-12T02:04:23.826Z,773.9130
2022-08-12T02:04:34.909Z,775.2610
2022-08-12T02:04:45.984Z,774.8110
2022-08-12T02:04:57.051Z,772.1230
2022-08-12T02:05:08.125Z,776.1630
2022-08-12T02:05:19.336Z,784.3710
2022-08-12T02:05:30.414Z,785.7560
2022-08-12T02:05:44.267Z,774.3620
2022-08-12T02:05:55.313Z,780.7020
2022-08-12T02:06:06.385Z,782.9910
2022-08-12T02:06:17.431Z,775.2610
2022-08-12T02:06:28.532Z,779.7900
2022-08-12T02:06:39.577Z,779.7900
2022-08-12T02:06:50.855Z,782.5320
2022-08-12T02:07:01.947Z,788.0760
2022-08-12T02:07:13.001Z,781.6160
2022-08-12T02:07:24.065Z,779.7900
2022-08-12T02:07:35.143Z,786.2190
2022-08-12T02:07:46.228Z,784.8320
2022-08-12T02:07:57.285Z,784.8320
2022-08-12T02:08:08.362Z,789.0070
2022-08-12T02:08:19.435Z,784.3710
2022-08-12T02:08:30.482Z,786.2190
2022-08-12T02:08:41.543Z,789.4740
2022-08-12T02:08:52.738Z,788.5410
2022-08-12T02:09:03.794Z,790.8770
2022-08-12T02:09:14.863Z,791.8150
2022-08-12T02:09:26.088Z,788.0760
2022-08-12T02:09:37.176Z,800.3600
2022-08-12T02:09:48.228Z,788.5410
2022-08-12T02:09:59.296Z,787.6110
2022-08-12T02:10:10.335Z,793.6980
2022-08-12T02:10:49.365Z,775.7120
2022-08-12T02:10:50.693Z,781.1590
2022-08-12T02:11:01.222Z,762.8570
2022-08-12T02:11:12.303Z,765.4820
2022-08-12T02:11:23.361Z,774.3620
2022-08-12T02:11:34.473Z,775.2610
2022-08-12T02:11:45.551Z,776.1630
2022-08-12T02:11:56.757Z,782.5320
2022-08-12T02:12:09.935Z,778.8800
2022-08-12T02:12:24.730Z,778.4260
2022-08-12T02:12:38.034Z,771.2300
2022-08-12T02:12:49.082Z,774.8110
2022-08-12T02:13:00.444Z,777.0660
2022-08-12T02:13:11.510Z,775.2610
2022-08-12T02:13:43.662Z,778.8800
2022-08-12T02:13:48.543Z,767.2410
2022-08-12T02:13:56.527Z,755.0900
2022-08-12T02:14:07.588Z,765.0430
2022-08-12T02:14:18.670Z,769.8960
2022-08-12T02:14:29.867Z,767.2410
2022-08-12T02:14:40.934Z,775.7120
2022-08-12T02:14:52.007Z,775.7120
2022-08-12T02:15:03.049Z,776.1630
2022-08-12T02:15:14.117Z,786.6820
2022-08-12T02:15:25.170Z,780.7020
2022-08-12T02:15:36.247Z,782.9910
2022-08-12T02:15:47.320Z,780.7020
2022-08-12T02:15:58.408Z,783.9110
2022-08-12T02:16:09.499Z,781.1590
2022-08-12T02:16:20.569Z,787.1460
2022-08-12T02:16:31.907Z,781.6160
2022-08-12T02:16:42.996Z,789.0070
2022-08-12T02:16:54.048Z,784.3710
2022-08-12T02:17:05.109Z,787.1460
2022-08-12T02:17:16.175Z,793.2260
2022-08-12T02:17:54.582Z,789.4740
2022-08-12T02:17:55.580Z,780.7020
2022-08-12T02:18:01.156Z,769.8960
2022-08-12T02:18:12.231Z,773.4650